San Francisco, California
Current Conditions -  °F | °C
As of 5:56 PM on Wednesday 22 Oct 2014 (Local Time) from KSFO Reporting Station
Scattered Clouds Scattered Clouds  
Wind Chill: 69°   Ceiling: Unl
Heat Index: 69°   Visibility: 10mi
Dew Point: 57°   Wind: 16mph
Humidity: 65%   Direction: 280°W
Pressure: 30.03"   Gusts: NA
Location:  37.78°N, 122.42°W
Report Text: KSFO 230056Z 28014KT 10SM FEW150 SCT200 21/14 A3003 RMK AO2 SLP170 T02060139
Loading
Personal Weather Stations






























Interactive Weather Map
Tropical Storm Tracking
New forecast layout! Learn more

10-Day Weather Forecast

Advertisements
Track Severe Weather on mobile